Time;durP1;ratioP1;P1;durP2;ratioP2;P2;SDS_P1;SDS_P2;PMS_P1;PMS_P2;Temp;Humidity;BMP_temperature;BMP_pressure;BME280_temperature;BME280_humidity;BME280_pressure;Samples;Min_cycle;Max_cycle;Signal;HPM_P1;HPM_P2
2022/05/11 00:02:04;;;;;;;17.93;7.10;;;;;;;12.65;48.64;100685.11;126248;1099;102253;-78
2022/05/11 00:04:38;;;;;;;12.60;6.10;;;;;;;12.64;48.34;100689.49;125446;1099;104248;-77
2022/05/11 00:07:07;;;;;;;;;;;;;;;12.62;48.50;100685.02;125270;1099;104207;-77
2022/05/11 00:09:40;;;;;;;18.50;6.80;;;;;;;12.61;48.69;100684.13;125078;1099;105495;-77
2022/05/11 00:12:15;;;;;;;15.00;6.47;;;;;;;12.59;48.74;100684.09;125505;1099;104159;-77
2022/05/11 00:14:46;;;;;;;14.47;6.63;;;;;;;12.57;49.06;100682.24;126292;1096;102087;-77
2022/05/11 00:17:18;;;;;;;18.47;6.93;;;;;;;12.55;48.83;100683.95;126098;1098;104287;-77
2022/05/11 00:19:49;;;;;;;15.33;6.73;;;;;;;12.53;49.12;100688.28;126140;1098;102755;-78
2022/05/11 00:22:22;;;;;;;16.87;6.50;;;;;;;12.50;49.54;100689.06;125076;1098;104172;-77
2022/05/11 00:24:55;;;;;;;16.85;6.85;;;;;;;12.47;49.54;100688.09;125330;1099;104203;-77
2022/05/11 00:27:26;;;;;;;15.23;7.07;;;;;;;12.49;49.75;100686.39;125258;1099;102314;-77
2022/05/11 00:29:59;;;;;;;17.47;7.03;;;;;;;12.48;49.57;100682.88;125077;1099;103557;-77
2022/05/11 00:32:31;;;;;;;19.50;7.50;;;;;;;12.47;49.78;100685.45;125334;1099;104201;-77
2022/05/11 00:35:04;;;;;;;17.97;7.33;;;;;;;12.47;49.65;100681.08;125465;1099;102730;-77
2022/05/11 00:37:38;;;;;;;16.03;6.63;;;;;;;12.52;49.83;100679.47;125439;1096;104048;-77
2022/05/11 00:40:13;;;;;;;18.50;7.90;;;;;;;12.57;49.81;100683.16;125455;1099;103286;-77
2022/05/11 00:42:45;;;;;;;16.30;6.65;;;;;;;12.61;50.04;100677.98;125362;1099;101999;-77
2022/05/11 00:45:18;;;;;;;14.93;6.67;;;;;;;12.61;49.87;100677.98;126020;1098;102847;-78
2022/05/11 00:47:52;;;;;;;17.30;6.90;;;;;;;12.62;50.01;100683.30;125367;1099;102350;-77
2022/05/11 00:50:26;;;;;;;15.03;6.30;;;;;;;12.58;50.35;100684.04;125393;1096;104261;-77
2022/05/11 00:52:58;;;;;;;;;;;;;;;12.52;50.10;100679.47;125045;1096;103568;-77
2022/05/11 00:55:33;;;;;;;14.23;7.00;;;;;;;12.48;50.83;100674.06;125169;1099;104194;-77
2022/05/11 00:58:11;;;;;;;13.90;6.70;;;;;;;12.45;50.96;100679.23;124989;1096;104207;-77
2022/05/11 01:00:46;;;;;;;15.33;6.57;;;;;;;12.41;50.94;100680.89;125137;1099;104380;-77
2022/05/11 01:03:17;;;;;;;;;;;;;;;12.36;50.53;100680.74;125198;1099;104162;-77
2022/05/11 01:05:49;;;;;;;17.93;7.00;;;;;;;12.32;50.56;100681.48;125127;1099;104214;-77
2022/05/11 01:08:22;;;;;;;17.80;8.20;;;;;;;12.29;51.04;100675.23;125222;1098;104191;-77
2022/05/11 01:10:53;;;;;;;14.33;6.73;;;;;;;12.28;51.18;100670.81;125096;1098;104325;-78
2022/05/11 01:13:25;;;;;;;16.20;6.90;;;;;;;12.28;51.36;100679.62;125280;1097;104077;-76
2022/05/11 01:15:59;;;;;;;19.43;7.10;;;;;;;12.26;51.49;100669.88;125204;1097;102351;-77
2022/05/11 01:18:31;;;;;;;16.67;6.50;;;;;;;12.25;51.73;100682.16;124935;1099;104156;-77
2022/05/11 01:21:07;;;;;;;17.55;6.10;;;;;;;12.20;51.81;100679.38;124990;1099;104172;-77
2022/05/11 01:23:44;;;;;;;15.03;6.73;;;;;;;12.15;51.88;100673.05;124950;1099;104262;-77
2022/05/11 01:26:19;;;;;;;16.13;6.60;;;;;;;12.12;52.36;100672.95;124919;1099;102900;-77
2022/05/11 01:28:54;;;;;;;14.50;6.73;;;;;;;12.09;52.66;100671.97;124829;1099;102541;-77
2022/05/11 01:31:25;;;;;;;18.03;6.87;;;;;;;12.06;52.82;100678.05;124919;1099;104220;-77
2022/05/11 01:33:57;;;;;;;16.40;6.10;;;;;;;12.02;52.40;100679.66;124963;1099;104169;-77
2022/05/11 01:36:31;;;;;;;13.00;6.10;;;;;;;11.97;53.02;100676.00;125058;1099;103471;-77
2022/05/11 01:39:04;;;;;;;15.93;6.37;;;;;;;11.96;52.96;100668.05;124806;1099;104313;-77
2022/05/11 01:41:38;;;;;;;12.00;6.60;;;;;;;11.94;53.20;100670.63;124920;1099;102303;-77
2022/05/11 01:44:12;;;;;;;15.98;6.35;;;;;;;11.92;53.73;100674.02;124867;1099;104176;-77
2022/05/11 01:46:48;;;;;;;17.07;6.83;;;;;;;11.87;53.45;100677.41;125154;1099;104168;-77
2022/05/11 01:49:20;;;;;;;12.90;6.30;;;;;;;11.85;53.80;100681.70;125079;1099;102934;-77
2022/05/11 01:51:52;;;;;;;16.40;6.67;;;;;;;11.84;53.70;100674.67;125241;1096;102756;-77
2022/05/11 01:54:24;;;;;;;14.80;6.10;;;;;;;11.84;53.34;100681.64;125329;1096;104077;-76
2022/05/11 01:56:56;;;;;;;15.50;6.40;;;;;;;11.83;53.58;100680.77;125068;1096;102794;-77
2022/05/11 01:59:28;;;;;;;14.47;6.37;;;;;;;11.82;53.93;100681.59;126048;1099;102743;-78
2022/05/11 02:02:00;;;;;;;15.77;6.13;;;;;;;11.84;54.39;100681.64;125239;1099;102765;-77
2022/05/11 02:10:11;;;;;;;15.70;6.20;;;;;;;11.75;54.50;100676.99;124875;1099;102439;-77
2022/05/11 02:12:43;;;;;;;17.07;6.20;;;;;;;11.71;54.75;100682.97;125132;1096;104163;-77
2022/05/11 02:15:15;;;;;;;15.23;6.13;;;;;;;11.65;55.08;100681.02;124998;1099;104175;-77
2022/05/11 02:17:47;;;;;;;15.93;6.17;;;;;;;11.62;54.97;100683.55;125018;1099;102912;-77
2022/05/11 02:20:19;;;;;;;13.93;5.93;;;;;;;11.59;55.18;100682.55;126249;1096;102865;-77
2022/05/11 02:22:55;;;;;;;18.27;6.75;;;;;;;11.56;54.90;100688.62;125026;1099;102473;-77
2022/05/11 02:25:27;;;;;;;13.17;6.33;;;;;;;11.53;54.85;100685.89;124984;1099;102391;-77
2022/05/11 02:27:59;;;;;;;15.30;6.30;;;;;;;11.50;55.25;100681.41;125033;1097;102797;-77
2022/05/11 02:30:33;;;;;;;14.53;6.07;;;;;;;11.51;55.08;100684.91;124962;1099;102746;-77
2022/05/11 02:33:04;;;;;;;13.93;6.33;;;;;;;11.49;55.68;100679.61;124916;1099;104187;-77
2022/05/11 02:35:36;;;;;;;14.57;6.00;;;;;;;11.44;55.92;100681.19;124920;1099;104157;-77
2022/05/11 02:38:14;;;;;;;15.80;6.40;;;;;;;11.40;56.00;100675.77;124962;1096;104159;-77
2022/05/11 02:40:48;;;;;;;17.00;6.67;;;;;;;11.38;56.14;100675.72;124870;1097;104213;-77
2022/05/11 02:43:23;;;;;;;14.80;6.50;;;;;;;11.37;56.25;100673.92;124861;1099;104205;-77
2022/05/11 02:45:55;;;;;;;17.80;7.10;;;;;;;11.39;56.16;100669.63;125222;1099;104211;-77
2022/05/11 02:48:30;;;;;;;13.50;6.60;;;;;;;11.41;55.97;100665.31;125015;1099;103329;-77
2022/05/11 02:51:04;;;;;;;16.33;6.33;;;;;;;11.48;55.99;100676.92;124834;1099;104648;-78
2022/05/11 02:53:35;;;;;;;15.53;6.65;;;;;;;11.53;55.95;100675.38;125235;1099;102749;-77
2022/05/11 02:56:07;;;;;;;15.43;6.53;;;;;;;11.54;56.43;100674.51;124417;1099;104160;-77
2022/05/11 02:58:41;;;;;;;16.13;6.43;;;;;;;11.50;56.59;100670.89;124805;1099;104249;-77
2022/05/11 03:01:15;;;;;;;13.63;5.90;;;;;;;11.47;56.29;100668.16;124959;1099;104241;-77
2022/05/11 03:04:27;;;;;;;16.13;6.23;;;;;;;11.46;56.62;100668.11;125350;1099;104410;-77
2022/05/11 03:10:31;;;;;;;15.47;6.33;;;;;;;11.42;56.98;100672.38;125033;1099;103779;-77
2022/05/11 03:13:02;;;;;;;14.97;6.13;;;;;;;11.45;56.98;100664.59;124961;1099;104297;-76
2022/05/11 03:15:35;;;;;;;13.13;6.00;;;;;;;11.49;56.96;100674.35;124846;1099;104262;-77
2022/05/11 03:18:07;;;;;;;12.10;5.43;;;;;;;11.53;56.82;100684.97;124922;1099;104147;-77
2022/05/11 03:20:39;;;;;;;14.63;6.33;;;;;;;11.59;56.99;100687.81;124841;1099;104220;-77
2022/05/11 03:23:12;;;;;;;15.10;6.03;;;;;;;11.65;56.94;100686.28;124827;1099;104252;-77
2022/05/11 03:25:44;;;;;;;12.47;6.10;;;;;;;11.71;57.40;100690.86;124838;1099;102435;-76
2022/05/11 03:28:16;;;;;;;14.83;6.17;;;;;;;11.76;57.38;100699.78;124815;1099;104213;-77
2022/05/11 03:30:49;;;;;;;12.10;5.75;;;;;;;11.82;56.93;100694.73;124902;1097;104277;-76
2022/05/11 03:36:16;;;;;;;13.53;6.10;;;;;;;11.92;57.06;100697.67;124809;1099;102785;-76
2022/05/11 03:38:50;;;;;;;14.90;6.25;;;;;;;11.96;57.68;100700.50;124881;1099;104229;-77
2022/05/11 03:41:23;;;;;;;15.23;5.53;;;;;;;12.01;57.46;100711.17;124903;1099;104220;-76
2022/05/11 03:43:57;;;;;;;10.37;5.10;;;;;;;12.05;57.77;100711.32;124917;1097;102110;-76
2022/05/11 03:46:31;;;;;;;9.90;5.47;;;;;;;12.15;57.58;100708.99;124913;1098;104243;-75
2022/05/11 03:49:04;;;;;;;16.00;5.80;;;;;;;12.20;57.37;100713.58;124831;1099;104166;-77
2022/05/11 03:51:35;;;;;;;;;;;;;;;12.21;57.23;100710.08;124854;1099;102755;-76
2022/05/11 03:54:07;;;;;;;14.33;5.73;;;;;;;12.26;57.18;100715.48;124935;1099;104341;-76
2022/05/11 03:56:39;;;;;;;12.20;5.50;;;;;;;12.29;57.61;100715.59;125891;1099;102005;-77
2022/05/11 03:59:12;;;;;;;10.43;5.40;;;;;;;12.29;57.14;100723.48;124894;1099;102319;-76
2022/05/11 04:01:45;;;;;;;14.37;5.77;;;;;;;12.29;57.73;100719.97;124816;1099;104169;-76
2022/05/11 04:04:19;;;;;;;11.17;5.03;;;;;;;12.27;57.60;100719.91;124870;1099;104402;-77
2022/05/11 04:06:50;;;;;;;;;;;;;;;12.27;57.34;100719.03;124813;1098;104290;-77
2022/05/11 04:09:23;;;;;;;14.20;5.27;;;;;;;12.29;57.15;100722.59;124827;1099;104179;-76
2022/05/11 04:11:57;;;;;;;13.40;5.97;;;;;;;12.33;57.38;100724.50;124789;1098;102806;-77
2022/05/11 04:14:29;;;;;;;10.65;5.25;;;;;;;12.37;57.55;100726.36;124787;1096;102401;-77
2022/05/11 04:17:01;;;;;;;12.70;5.60;;;;;;;12.38;57.72;100726.41;124833;1099;104288;-77
2022/05/11 04:19:33;;;;;;;17.63;5.80;;;;;;;12.40;57.75;100727.38;124842;1097;104159;-77
2022/05/11 04:22:07;;;;;;;13.17;5.57;;;;;;;12.44;57.53;100732.73;124888;1099;102450;-76
2022/05/11 04:24:38;;;;;;;14.70;5.70;;;;;;;12.47;57.77;100728.45;124771;1099;102688;-77
2022/05/11 04:27:10;;;;;;;12.40;6.17;;;;;;;12.54;57.90;100726.89;124778;1099;104238;-77
2022/05/11 04:29:43;;;;;;;11.93;5.13;;;;;;;12.63;57.34;100734.20;124863;1099;104354;-77
2022/05/11 04:32:15;;;;;;;12.03;5.20;;;;;;;12.70;57.84;100728.26;124793;1099;104259;-78
2022/05/11 04:34:50;;;;;;;13.67;5.20;;;;;;;12.77;57.44;100717.95;124761;1096;104166;-77
2022/05/11 04:37:22;;;;;;;14.30;5.07;;;;;;;12.85;57.92;100727.84;124798;1097;104254;-77
2022/05/11 04:39:54;;;;;;;12.93;5.50;;;;;;;12.88;57.31;100722.66;124789;1096;102461;-78
2022/05/11 04:42:26;;;;;;;15.40;5.53;;;;;;;12.92;57.79;100725.44;124879;1096;102787;-77
2022/05/11 04:44:58;;;;;;;10.77;5.10;;;;;;;12.98;57.59;100721.19;124790;1099;104208;-77
2022/05/11 04:47:30;;;;;;;20.20;5.77;;;;;;;13.03;57.61;100725.76;124796;1099;102638;-77
2022/05/11 04:50:03;;;;;;;14.33;5.27;;;;;;;13.12;57.51;100733.05;124857;1099;104157;-77
2022/05/11 04:52:36;;;;;;;10.37;4.60;;;;;;;13.20;57.49;100728.88;124967;1099;104699;-76
2022/05/11 04:55:09;;;;;;;14.13;4.97;;;;;;;13.28;57.17;100731.73;124849;1099;104169;-76
2022/05/11 04:57:41;;;;;;;16.10;5.10;;;;;;;13.33;57.40;100730.15;124912;1097;104181;-76
2022/05/11 05:00:15;;;;;;;13.47;5.07;;;;;;;13.32;57.06;100715.14;124844;1099;104341;-77
2022/05/11 05:02:48;;;;;;;14.05;5.10;;;;;;;13.46;56.81;100736.64;124844;1099;101934;-75
2022/05/11 05:05:20;;;;;;;15.78;5.28;;;;;;;13.51;56.16;100732.42;124763;1099;102888;-77
2022/05/11 05:07:53;;;;;;;14.97;5.30;;;;;;;13.56;56.41;100738.70;124887;1099;104160;-76
2022/05/11 05:10:25;;;;;;;14.17;5.70;;;;;;;13.62;56.28;100736.23;124818;1098;104195;-76
2022/05/11 05:13:01;;;;;;;14.67;5.10;;;;;;;13.71;56.58;100737.31;124844;1099;104229;-76
2022/05/11 05:15:34;;;;;;;15.63;5.40;;;;;;;13.80;56.55;100741.08;124857;1099;104655;-75
2022/05/11 05:18:20;;;;;;;13.43;5.10;;;;;;;13.90;55.74;100742.23;124848;1099;102583;-76
2022/05/11 05:20:53;;;;;;;13.67;5.00;;;;;;;13.97;55.26;100738.88;124991;1096;102538;-75
2022/05/11 05:23:24;;;;;;;18.57;5.27;;;;;;;14.06;55.34;100737.36;124787;1099;104179;-75
2022/05/11 05:25:56;;;;;;;18.17;5.93;;;;;;;14.13;55.34;100732.27;124815;1099;102675;-74
2022/05/11 05:31:21;;;;;;;14.57;5.90;;;;;;;14.32;55.58;100730.05;124997;1099;102830;-75
2022/05/11 05:33:59;;;;;;;16.43;5.30;;;;;;;14.42;54.48;100731.19;124820;1099;104210;-76
2022/05/11 05:36:36;;;;;;;13.77;4.70;;;;;;;14.50;54.61;100726.97;124920;1099;102839;-76
2022/05/11 05:39:08;;;;;;;14.90;5.30;;;;;;;14.51;54.20;100724.37;124900;1096;104159;-75
2022/05/11 05:41:41;;;;;;;14.93;5.57;;;;;;;14.67;54.83;100741.48;125786;1096;104157;-76
2022/05/11 05:44:13;;;;;;;17.77;4.85;;;;;;;14.75;53.88;100733.73;124980;1096;104150;-76
2022/05/11 05:46:46;;;;;;;14.73;5.03;;;;;;;14.84;53.53;100740.98;124872;1099;104210;-77
2022/05/11 05:49:18;;;;;;;17.67;5.50;;;;;;;14.87;53.57;100731.36;124907;1099;102837;-76
2022/05/11 05:51:57;;;;;;;17.47;5.10;;;;;;;15.07;54.21;100739.72;125168;1099;104374;-75
2022/05/11 05:54:32;;;;;;;17.67;5.13;;;;;;;15.17;53.00;100745.20;125047;1099;104279;-76
2022/05/11 05:57:05;;;;;;;15.00;5.00;;;;;;;15.23;53.58;100745.33;125054;1099;104198;-77
2022/05/11 05:59:39;;;;;;;13.97;5.17;;;;;;;15.32;52.56;100734.03;124967;1099;104109;-76
2022/05/11 06:02:14;;;;;;;15.70;4.77;;;;;;;15.41;52.22;100737.77;124941;1096;104158;-75
2022/05/11 06:05:28;;;;;;;14.57;5.10;;;;;;;15.50;52.76;100736.16;125043;1099;102813;-76
2022/05/11 06:08:07;;;;;;;19.50;4.67;;;;;;;15.61;51.53;100732.88;124975;1099;117673;-78
2022/05/11 06:10:42;;;;;;;10.20;4.30;;;;;;;15.70;51.64;100734.78;124940;1099;104319;-78
2022/05/11 06:13:16;;;;;;;15.68;4.87;;;;;;;15.77;52.10;100731.42;124901;1099;102438;-78
2022/05/11 06:15:52;;;;;;;14.17;4.30;;;;;;;15.85;50.16;100738.59;124809;1099;104182;-78
2022/05/11 06:18:25;;;;;;;18.05;4.47;;;;;;;15.92;50.56;100743.14;124960;1099;104666;-78
2022/05/11 06:20:59;;;;;;;15.83;4.17;;;;;;;16.00;49.48;100749.45;125101;1100;104309;-77
2022/05/11 06:23:35;;;;;;;11.50;4.47;;;;;;;16.08;49.44;100744.29;125481;1096;102963;-77
2022/05/11 06:26:07;;;;;;;10.83;4.43;;;;;;;16.16;49.20;100747.98;124981;1099;104163;-77
2022/05/11 06:28:44;;;;;;;14.73;4.60;;;;;;;16.23;49.76;100751.61;124935;1099;109342;-76
2022/05/11 06:31:18;;;;;;;15.47;4.40;;;;;;;16.31;49.11;100744.67;125160;1099;102457;-78
2022/05/11 06:33:55;;;;;;;12.20;4.80;;;;;;;16.42;49.33;100751.03;124893;1098;104335;-76
2022/05/11 06:36:26;;;;;;;12.70;4.55;;;;;;;16.54;48.94;100747.69;125084;1099;102403;-76
2022/05/11 06:38:59;;;;;;;9.70;4.47;;;;;;;16.67;48.56;100752.31;124902;1098;104156;-77
2022/05/11 06:41:33;;;;;;;14.17;4.70;;;;;;;16.78;48.67;100739.23;124937;1099;104357;-77
2022/05/11 06:44:16;;;;;;;11.63;4.20;;;;;;;16.89;48.23;100742.94;124927;1099;104185;-77
2022/05/11 06:46:50;;;;;;;13.80;4.30;;;;;;;17.04;47.99;100738.70;124941;1099;103112;-75
2022/05/11 06:49:26;;;;;;;12.57;4.40;;;;;;;17.17;46.91;100732.70;124842;1099;104192;-75
2022/05/11 06:51:57;;;;;;;12.00;4.00;;;;;;;17.32;46.21;100739.05;124992;1099;102624;-74
2022/05/11 07:00:46;;;;;;;11.17;4.10;;;;;;;17.79;46.08;100730.70;125059;1102;104220;-76
2022/05/11 07:03:27;;;;;;;11.93;3.57;;;;;;;17.96;45.30;100721.16;124764;1100;102408;-75
2022/05/11 07:06:12;;;;;;;11.50;4.60;;;;;;;18.18;45.08;100724.00;125680;1098;104207;-76
2022/05/11 07:08:49;;;;;;;14.40;4.20;;;;;;;18.36;44.97;100727.70;125695;1098;102288;-75
2022/05/11 07:14:33;;;;;;;11.23;3.93;;;;;;;18.72;43.67;100724.39;124999;1099;103495;-76
2022/05/11 07:17:12;;;;;;;13.23;3.80;;;;;;;18.92;42.06;100721.00;125632;1099;102637;-76
2022/05/11 07:19:50;;;;;;;8.80;3.77;;;;;;;19.10;42.29;100728.15;125040;1099;102401;-77
2022/05/11 07:22:28;;;;;;;10.53;3.27;;;;;;;19.23;42.33;100719.35;125673;1099;103834;-76
2022/05/11 07:24:59;;;;;;;11.93;3.83;;;;;;;19.40;41.79;100724.73;125733;1099;104182;-76
2022/05/11 07:27:43;;;;;;;7.70;3.53;;;;;;;19.51;41.22;100719.41;124947;1099;104535;-77
2022/05/11 07:30:45;;;;;;;7.43;3.10;;;;;;;19.70;40.53;100721.23;125686;1099;109264;-77
2022/05/11 07:33:42;;;;;;;8.75;3.05;;;;;;;19.94;38.83;100706.20;125688;1099;102683;-77
2022/05/11 07:36:21;;;;;;;10.40;3.50;;;;;;;20.13;38.88;100709.74;125746;1099;104169;-76
2022/05/11 07:39:05;;;;;;;9.10;3.17;;;;;;;20.35;36.53;100721.30;125721;1099;104319;-77
2022/05/11 07:41:41;;;;;;;10.47;3.30;;;;;;;20.53;37.61;100725.70;125702;1099;119023;-76
2022/05/11 07:44:20;;;;;;;8.40;3.30;;;;;;;20.74;37.75;100713.24;125708;1099;104255;-78
2022/05/11 07:47:00;;;;;;;8.23;3.30;;;;;;;20.89;37.47;100717.66;125650;1099;104242;-77
2022/05/11 07:49:41;;;;;;;6.45;3.05;;;;;;;21.07;35.77;100703.38;125600;1099;104261;-77
2022/05/11 07:52:14;;;;;;;9.40;2.67;;;;;;;21.23;34.14;100707.73;125922;1099;104188;-77
2022/05/11 07:54:51;;;;;;;5.00;3.20;;;;;;;21.33;33.46;100706.80;125672;1099;102361;-75
2022/05/11 08:00:29;;;;;;;8.27;3.30;;;;;;;21.63;33.46;100704.87;125657;1099;102255;-76
2022/05/11 08:03:11;;;;;;;8.50;2.77;;;;;;;21.72;32.59;100706.57;125620;1099;104287;-76
2022/05/11 08:05:43;;;;;;;5.63;2.80;;;;;;;21.85;33.69;100700.26;125608;1099;102549;-77
2022/05/11 08:08:17;;;;;;;5.95;2.70;;;;;;;21.93;31.79;100696.66;125754;1099;104273;-76
2022/05/11 08:10:53;;;;;;;7.63;3.00;;;;;;;22.04;28.64;100702.78;125675;1099;104326;-78
2022/05/11 08:13:28;;;;;;;14.07;2.70;;;;;;;22.05;29.54;100693.88;125065;1099;104223;-78
2022/05/11 08:16:03;;;;;;;10.07;2.90;;;;;;;22.14;30.70;100692.89;124985;1099;104169;-77
2022/05/11 08:18:35;;;;;;;7.15;2.85;;;;;;;22.21;31.14;100684.81;124991;1099;102411;-76
2022/05/11 08:21:10;;;;;;;5.23;2.70;;;;;;;22.29;28.80;100702.57;124869;1098;104156;-76
2022/05/11 08:23:44;;;;;;;10.43;3.17;;;;;;;22.46;29.53;100695.30;124908;1099;104839;-77
2022/05/11 08:26:23;;;;;;;5.57;2.80;;;;;;;22.50;24.01;100691.70;124934;1099;104192;-78
2022/05/11 08:28:59;;;;;;;5.57;2.73;;;;;;;22.36;27.33;100689.17;124889;1099;104169;-76
2022/05/11 08:37:36;;;;;;;6.63;2.60;;;;;;;22.44;26.37;100681.07;125377;1099;102743;-78
2022/05/11 08:40:31;;;;;;;9.13;2.90;;;;;;;22.47;27.14;100675.70;125627;1099;104163;-77
2022/05/11 08:43:31;;;;;;;5.10;2.70;;;;;;;22.51;25.87;100674.73;125654;1099;113193;-77
2022/05/11 08:46:21;;;;;;;8.07;2.57;;;;;;;22.57;25.88;100658.63;125561;1099;102228;-77
2022/05/11 08:49:15;;;;;;;4.07;2.47;;;;;;;22.69;25.73;100665.64;125573;1099;103847;-77
2022/05/11 08:52:10;;;;;;;4.70;2.40;;;;;;;22.71;26.00;100655.80;125158;1099;104264;-77
2022/05/11 08:54:59;;;;;;;6.37;2.60;;;;;;;22.82;26.28;100650.31;125611;1099;104270;-77
2022/05/11 08:57:37;;;;;;;6.40;2.57;;;;;;;22.77;25.03;100638.80;125686;1099;102875;-77
2022/05/11 09:00:21;;;;;;;6.47;2.70;;;;;;;22.78;25.37;100649.48;125639;1099;102692;-76
2022/05/11 09:03:05;;;;;;;;;;;;;;;22.69;24.26;100633.54;125313;1099;104303;-77
2022/05/11 09:05:43;;;;;;;5.50;2.60;;;;;;;22.61;25.48;100638.98;124800;1099;103267;-77
2022/05/11 09:08:18;;;;;;;7.53;2.70;;;;;;;22.59;24.85;100635.45;124766;1099;104446;-77
2022/05/11 09:10:50;;;;;;;7.07;2.70;;;;;;;22.64;24.77;100634.48;124830;1099;104262;-78
2022/05/11 09:13:26;;;;;;;6.60;2.80;;;;;;;22.70;24.66;100635.29;124926;1096;102297;-77
2022/05/11 09:16:18;;;;;;;3.27;2.50;;;;;;;22.79;24.82;100639.66;124817;1096;104235;-78
2022/05/11 09:18:50;;;;;;;7.40;2.60;;;;;;;22.78;24.46;100638.78;124855;1099;104361;-77
2022/05/11 09:21:38;;;;;;;3.93;2.50;;;;;;;22.68;24.67;100641.58;124825;1099;104175;-76
2022/05/11 09:24:25;;;;;;;5.40;2.50;;;;;;;22.73;23.63;100637.92;125034;1099;104589;-78
2022/05/11 09:27:10;;;;;;;4.77;2.17;;;;;;;22.63;23.69;100625.59;124922;1099;104211;-77
2022/05/11 09:29:44;;;;;;;4.33;2.40;;;;;;;22.74;24.01;100633.48;125013;1097;103052;-77
2022/05/11 09:32:29;;;;;;;7.92;2.72;;;;;;;22.79;23.85;100640.53;124963;1099;104163;-77
2022/05/11 09:35:19;;;;;;;5.17;2.30;;;;;;;22.77;22.94;100639.67;124960;1099;104217;-77
2022/05/11 09:38:11;;;;;;;8.10;2.47;;;;;;;22.66;22.31;100632.67;124926;1099;104304;-77
2022/05/11 09:40:58;;;;;;;5.50;2.40;;;;;;;22.63;22.73;100636.28;125056;1099;102505;-78
2022/05/11 09:43:43;;;;;;;6.30;2.50;;;;;;;22.70;23.52;100626.39;125017;1098;102994;-76
2022/05/11 09:46:30;;;;;;;7.40;2.60;;;;;;;22.76;22.88;100632.54;124881;1098;104034;-77
2022/05/11 09:49:13;;;;;;;5.10;2.45;;;;;;;22.77;23.28;100622.75;124876;1099;102860;-77
2022/05/11 09:51:58;;;;;;;3.50;2.23;;;;;;;22.79;22.50;100628.95;124898;1098;104156;-78
2022/05/11 09:54:51;;;;;;;4.40;2.40;;;;;;;22.78;22.26;100627.17;125110;1099;104347;-77
2022/05/11 09:57:27;;;;;;;6.27;2.10;;;;;;;22.81;22.71;100627.13;125056;1099;104149;-77
2022/05/11 10:00:23;;;;;;;6.17;2.80;;;;;;;22.78;22.67;100633.42;124823;1096;104054;-77
2022/05/11 10:02:59;;;;;;;5.93;2.50;;;;;;;22.78;22.45;100625.41;125721;1096;102421;-78
2022/05/11 10:05:43;;;;;;;5.23;2.70;;;;;;;22.81;22.11;100624.45;125741;1099;102537;-77
2022/05/11 10:08:24;;;;;;;4.87;2.50;;;;;;;22.74;22.02;100625.46;125288;1100;102819;-78
2022/05/11 10:11:11;;;;;;;4.27;2.13;;;;;;;22.72;22.16;100619.22;125789;1099;102828;-78
2022/05/11 10:13:52;;;;;;;4.97;2.30;;;;;;;22.80;22.33;100626.26;124913;1099;104637;-77
2022/05/11 10:22:40;;;;;;;3.30;2.10;;;;;;;22.84;22.25;100619.06;125090;1099;102846;-79
2022/05/11 10:25:26;;;;;;;4.90;2.40;;;;;;;22.85;21.60;100622.66;125902;1099;104312;-78
2022/05/11 10:28:06;;;;;;;3.93;2.40;;;;;;;22.89;21.75;100624.36;125916;1098;104165;-78
2022/05/11 10:30:54;;;;;;;7.87;2.33;;;;;;;22.88;21.96;100617.27;125287;1099;104176;-77
2022/05/11 10:33:58;;;;;;;5.73;2.33;;;;;;;22.86;21.35;100624.40;125268;1099;103264;-78
2022/05/11 10:36:41;;;;;;;4.60;2.40;;;;;;;22.78;21.23;100617.38;125423;1099;102327;-78
2022/05/11 10:39:27;;;;;;;5.13;2.73;;;;;;;22.79;21.34;100623.60;125952;1099;104264;-78
2022/05/11 10:42:14;;;;;;;6.57;2.80;;;;;;;22.78;21.15;100617.38;125283;1098;104243;-79
2022/05/11 10:45:20;;;;;;;6.83;2.57;;;;;;;22.80;21.42;100617.36;126127;1099;102279;-79
2022/05/11 10:48:16;;;;;;;4.57;2.50;;;;;;;22.80;21.88;100617.36;125999;1099;104078;-78
2022/05/11 10:51:09;;;;;;;7.37;2.53;;;;;;;22.82;21.56;100614.66;125916;1099;104213;-78
2022/05/11 10:53:57;;;;;;;3.90;2.30;;;;;;;22.85;21.40;100601.25;125861;1099;104328;-78
2022/05/11 10:57:02;;;;;;;4.33;2.60;;;;;;;22.85;21.80;100607.47;125905;1099;108615;-79
2022/05/11 11:00:22;;;;;;;4.83;2.47;;;;;;;22.92;22.03;100613.62;125806;1099;103013;-79
2022/05/11 11:03:55;;;;;;;;;;;;;;;;;;;;;
2022/05/11 11:07:18;;;;;;;6.53;2.23;;;;;;;23.00;21.57;100617.09;125222;1102;104248;-79
2022/05/11 11:10:14;;;;;;;7.77;2.37;;;;;;;23.03;22.06;100619.73;125185;1102;104211;-78
2022/05/11 11:13:09;;;;;;;4.60;2.70;;;;;;;23.09;22.37;100613.42;125031;1102;104293;-78
2022/05/11 11:15:48;;;;;;;7.67;3.27;;;;;;;23.07;22.16;100605.38;124969;1102;104734;-79
2022/05/11 11:18:33;;;;;;;6.63;2.50;;;;;;;23.18;22.51;100597.23;125013;1102;102863;-78
2022/05/11 11:21:09;;;;;;;5.90;3.10;;;;;;;23.26;22.25;100600.67;125043;1102;104172;-79
2022/05/11 11:23:47;;;;;;;7.17;2.80;;;;;;;23.29;21.92;100597.95;125099;1102;104268;-79
2022/05/11 11:26:55;;;;;;;8.53;2.77;;;;;;;23.28;22.31;100587.26;124919;1102;104206;-78
2022/05/11 11:29:39;;;;;;;6.50;2.37;;;;;;;23.31;22.08;100593.47;125135;1102;102255;-79
2022/05/11 11:32:32;;;;;;;5.80;2.73;;;;;;;23.28;21.63;100589.94;125221;1102;104179;-79
2022/05/11 11:38:52;;;;;;;5.87;2.60;;;;;;;23.46;22.27;100583.42;124950;1103;102577;-80
2022/05/11 11:41:45;;;;;;;5.37;2.60;;;;;;;23.49;22.18;100580.70;124875;1102;104165;-78
2022/05/11 11:44:51;;;;;;;8.43;2.97;;;;;;;23.51;22.24;100589.58;124500;1102;102398;-79
2022/05/11 11:48:12;;;;;;;5.50;2.37;;;;;;;23.44;22.03;100585.25;125251;1102;104344;-79
2022/05/11 11:50:58;;;;;;;7.43;2.90;;;;;;;23.40;21.70;100592.42;124987;1102;105630;-80
2022/05/11 11:53:59;;;;;;;7.53;2.60;;;;;;;23.48;22.01;100594.98;125085;1102;102305;-80
2022/05/11 11:57:17;;;;;;;;;;;;;;;;;;;;;
2022/05/11 12:00:11;;;;;;;4.57;2.40;;;;;;;23.51;21.76;100594.94;124424;1099;102575;-77
2022/05/11 12:03:05;;;;;;;4.87;2.53;;;;;;;23.61;21.12;100591.20;125239;1099;104373;-80
2022/05/11 12:05:46;;;;;;;;;;;;;;;23.62;21.51;100584.95;125229;1099;104229;-78
2022/05/11 12:18:09;;;;;;;6.83;2.80;;;;;;;23.92;21.07;100577.31;125956;1099;104259;-80
2022/05/11 12:20:56;;;;;;;4.27;2.37;;;;;;;23.94;21.22;100558.53;125463;1099;102149;-78
2022/05/11 12:23:36;;;;;;;6.83;2.63;;;;;;;23.91;20.90;100554.09;125853;1099;104194;-77
2022/05/11 12:26:24;;;;;;;5.67;2.33;;;;;;;23.92;21.35;100555.87;125699;1099;104197;-78
2022/05/11 12:32:10;;;;;;;5.15;2.40;;;;;;;24.10;21.25;100543.03;125721;1099;104211;-78
2022/05/11 12:34:55;;;;;;;7.13;2.77;;;;;;;24.09;21.57;100531.44;124817;1099;104198;-77
2022/05/11 12:37:31;;;;;;;6.30;2.70;;;;;;;24.03;20.96;100547.64;124844;1098;102563;-78
2022/05/11 12:40:09;;;;;;;8.53;2.70;;;;;;;23.93;21.22;100552.27;124757;1099;104318;-77
2022/05/11 12:42:44;;;;;;;6.57;2.70;;;;;;;23.97;21.30;100545.95;124886;1099;102275;-76
2022/05/11 12:45:42;;;;;;;5.77;2.50;;;;;;;24.03;21.25;100540.47;124847;1099;104169;-75
2022/05/11 12:48:26;;;;;;;5.43;2.57;;;;;;;24.08;21.06;100540.38;125733;1099;104197;-75
2022/05/11 12:51:07;;;;;;;12.03;3.03;;;;;;;24.16;21.11;100541.10;125711;1099;104272;-77
2022/05/11 12:53:49;;;;;;;7.13;2.70;;;;;;;24.20;20.97;100533.91;125770;1099;101815;-75
2022/05/11 12:56:58;;;;;;;7.93;2.70;;;;;;;24.31;21.44;100537.24;125654;1099;102785;-76
2022/05/11 13:00:14;;;;;;;6.10;2.70;;;;;;;24.20;20.92;100540.14;125696;1099;111312;-77